Electron Alley

Oops — I Never Saw It Do That Before . . . .

Archive for January 2011

Reverie #44 – 110131 Mix Notes

leave a comment »

Mackie Stereo Reverb:  8 Bit Digital/Small Room #3; Blend 50%; Pre-Delay 8ms; Decay 1.5 ms; Damping 0; Diffusion 0; Roll-off 15.2 kHz; EQ 2kHz @ +3 db, 550 Hz @ +5 db, 114 Hz @ -4.8 db; Dry Mix @ 85%

Acuma Final Mix = Input -1.5 db; Output -1.0 db

Advertisements

Written by M.T. Bass

January 31, 2011 at 5:01 pm

Erie Effects – January, 2011 Wx Log

leave a comment »

January 1

8:30 AM 26.6 °F 23.0 °F 86% 29.77 in 5.0 miles South 12.7 mph – 0.00 in Overcast

SPECI KLPR 291330Z AUTO 19011KT 5SM UP BR FEW016 BKN029 OVC034 M03/M05 A2977 RMK AO2 UPB24SNE24 P0000 $

Sunrise: 7:55am; Sunset: 5:08pm; Moonrise: 5:28am; Moonset: 2:44pm; Day length: 9h 14m

January 2

8:53 AM 21.0 °F 10.9 °F 65% 30.18 in 10.0 miles West 16.1 mph – N/A Partly Cloudy

METAR KLPR 021353Z AUTO 26014KT 10SM FEW026 M06/M12 A3015 RMK AO2 SLP220 T10611117

Sunrise: 7:55am; Sunset: 5:09pm; Moonrise: 6:28am; Moonset: 3:40pm; Day length: 9h 14m

January 3

8:53 AM 21.9 °F 14.0 °F 72% 30.23 in 10.0 miles SSW 9.2 mph – N/A Clear

METAR KLPR 031353Z AUTO 21008KT 10SM CLR M06/M10 A3020 RMK AO2 SLP237 T10561100

Sunrise: 7:55am; Sunset: 5:10pm; Moonrise: 7:20am; Moonset: 4:41pm; Day length: 9h 15m

January 4

8:53 AM 32.0 °F 19.0 °F 59% 29.91 in 10.0 miles SW 10.4 mph – N/A Mostly Cloudy

METAR KLPR 041353Z AUTO 23009KT 10SM BKN070 00/M07 A2988 RMK AO2 SLP127 T00001072

Sunrise: 7:55am; Sunset: 5:11pm; Moonrise: 8:03am; Moonset: 5:45pm; New Moon: 4:04am; Day length: 9h 16m

January 5

8:53 AM 23.0 °F 16.0 °F 74% 30.04 in 9.0 miles West 5.8 mph – N/A Overcast

METAR KLPR 051353Z AUTO 26005KT 9SM OVC031 M05/M09 A3001 RMK AO2 SLP173 T10501089

Sunrise: 7:55am; Sunset: 5:12pm; Moonrise: 8:39am; Moonset: 6:49pm; Day length: 9h 17m

January 6

8:53 AM 25.0 °F 21.0 °F 85% 29.66 in 5.0 miles SSW 6.9 mph – 0.00 in Overcast

METAR KLPR 061353Z AUTO 20006KT 5SM BR OVC016 M04/M06 A2962 RMK AO2 SNE21 SLP042 P0000 T10391061

Sunrise: 7:55am; Sunset: 5:13pm; Moonrise: 9:09am; Moonset: 7:52pm; Day length: 9h 18m

January 7

8:42 AM 17.6 °F 12.2 °F 79% 29.43 in 10.0 miles WSW 9.2 mph – N/A Overcast

SPECI KLPR 071342Z AUTO 24008KT 10SM SCT020 OVC055 M08/M11 A2943 RMK AO2

Sunrise: 7:55am; Sunset: 5:14pm; Moonrise: 9:36am; Moonset: 8:52pm; Day length: 9h 19m

January 8

8:14 AM 14.0 °F 10.4 °F 86% 29.49 in 9.0 miles West 5.8 mph – 0.00 in Overcast

SPECI KLPR 081314Z AUTO 27005KT 9SM BKN018 BKN029 OVC048 M10/M12 A2949 RMK AO2 SNE1255 P0000

Sunrise: 7:55am; Sunset: 5:15pm; Moonrise: 10:00am; Moonset: 9:52pm; Day length: 9h 20m

January 9

8:53 PM 15.1 °F 10.0 °F 80% 30.43 in 10.0 miles WSW 5.8 mph – N/A Clear

METAR KLPR 100153Z AUTO 24005KT 10SM CLR M09/M12 A3038 RMK AO2 SLP302 T10941122 TSNO

Sunrise: 7:55am; Sunset: 5:15pm; Moonrise: 10:00am; Moonset: 9:52pm; Day length: 9h 20m

January 10

8:53 PM 24.1 °F 17.1 °F 75% 30.38 in 10.0 miles NE 5.8 mph – N/A Scattered Clouds

METAR KLPR 110153Z AUTO 05005KT 10SM SCT024 M04/M08 A3033 RMK AO2 SLP286 T10441083

Sunrise: 7:54am; Sunset: 5:17pm; Moonrise: 10:45am; Moonset: 11:49pm; Day length: 9h 22m

January 11

8:53 AM 23.0 °F 15.1 °F 72% 30.15 in 10.0 miles East 6.9 mph – N/A Overcast

METAR KLPR 111353Z AUTO 10006KT 10SM OVC075 M05/M09 A3011 RMK AO2 SLP208 T10501094

Sunrise: 7:54am; Sunset: 5:18pm; Moonrise: 11:08am; Moonset: none; Day length: 9h 24m

January 12

8:53 AM 24.1 °F 19.0 °F 81% 30.08 in 10.0 miles NNW 15.0 mph 25.3 mph 0.00 in Overcast

METAR KLPR 121353Z AUTO 34013G22KT 10SM OVC045 M04/M07 A3004 RMK AO2 PK WND 35026/1325 SNB27E37 SLP184 P0000 T10441072

Sunrise: 7:54am; Sunset: 5:19pm; Moonrise: 11:34am; Moonset: 12:49am; First Qtr: 6:33am; Day length: 9h 25m

January 13

8:53 AM 16.0 °F 12.0 °F 84% 30.48 in 8.0 miles WNW 5.8 mph – N/A Overcast

METAR KLPR 131353Z AUTO 29005KT 8SM OVC031 M09/M11 A3043 RMK AO2 SLP319 T10891111

Sunrise: 7:54am; Sunset: 5:20pm; Moonrise: 12:04pm; Moonset: 1:50am; Day length: 9h 26m

January 14

8:53 AM 19.0 °F 15.1 °F 85% 30.38 in 3.0 miles SSW 5.8 mph – 0.00 in Snow Light Snow

METAR KLPR 141353Z AUTO 21005KT 3SM -SN BR SCT031 BKN039 OVC055 M07/M09 A3034 RMK AO2 SNE1255B31 SLP286 P0000 T10721094

Sunrise: 7:53am; Sunset: 5:21pm; Moonrise: 12:39pm; Moonset: 2:53am; Day length: 9h 28m

January 15

8:19 AM 28.4 °F 24.8 °F 86% 29.87 in 5.0 miles SSW 16.1 mph 24.2 mph 0.00 in Haze

SPECI KLPR 151319Z AUTO 20014G21KT 5SM HZ FEW021 BKN044 OVC075 M02/M04 A2987 RMK AO2 SNE18 P0000

Sunrise: 7:53am; Sunset: 5:22pm; Moonrise: 1:21pm; Moonset: 3:55am; Day length: 9h 29m

January 16

8:53 AM 16.0 °F 6.1 °F 65% 30.29 in 10.0 miles North 5.8 mph – N/A Overcast

METAR KLPR 161353Z AUTO 01005KT 10SM OVC031 M09/M14 A3025 RMK AO2 SLP255 T10891144

Sunrise: 7:52am; Sunset: 5:23pm; Moonrise: 2:12pm; Moonset: 4:57am; Day length: 9h 31m

January 17

8:53 AM 12.0 °F 6.1 °F 77% 30.19 in 10.0 miles SSE 6.9 mph – N/A Partly Cloudy

METAR KLPR 171353Z AUTO 16006KT 10SM FEW085 M11/M14 A3015 RMK AO2 SLP224 T11111144

Sunrise: 7:52am; Sunset: 5:25pm; Moonrise: 3:13pm; Moonset: 5:54am; Day length: 9h 33m

January 18

7:53 AM 37.0 °F 33.1 °F 86% 29.77 in 7.0 miles South 12.7 mph – N/A Overcast

METAR KLPR 181253Z AUTO 18011KT 7SM OVC028 03/01 A2975 RMK AO2 SLP081 T00280006

Sunrise: 7:51am; Sunset: 5:26pm; Moonrise: 4:22pm; Moonset: 6:45am; Day length: 9h 34m

January 19

8:53 AM 27.0 °F 23.0 °F 85% 29.92 in 10.0 miles NNE 11.5 mph – N/A Overcast

METAR KLPR 191353Z AUTO 02010KT 10SM OVC013 M03/M05 A2990 RMK AO2 SLP132 T10281050

Sunrise: 7:51am; Sunset: 5:27pm; Moonrise: 5:36pm; Moonset: 7:29am; Full Moon: 4:22pm; Day length: 9h 36m

January 20

8:53 AM 21.0 °F 17.1 °F 85% 30.14 in 8.0 miles Calm Calm – N/A Overcast

METAR KLPR 201353Z AUTO 00000KT 8SM OVC021 M06/M08 A3011 RMK AO2 SLP207 T10611083

Sunrise: 7:50am; Sunset: 5:28pm; Moonrise: 6:52pm; Moonset: 8:07am; Day length: 9h 38m

January 21

8:36 AM 12.2 °F 6.8 °F 79% 29.90 in 10.0 miles West 13.8 mph 21.9 mph 0.00 in Overcast

SPECI KLPR 211336Z AUTO 28012G19KT 10SM BKN029 OVC038 M11/M14 A2990 RMK AO2 SNE16 P0000

Sunrise: 7:50am; Sunset: 5:29pm; Moonrise: 8:08pm; Moonset: 8:41am; Day length: 9h 40m

January 22

8:53 AM 1.0 °F -2.9 °F 83% 30.01 in 6.0 miles SSW 6.9 mph – N/A Partly Cloudy

METAR KLPR 221353Z AUTO 20006KT 6SM BR FEW110 M17/M19 A2995 RMK AO2 SLP162 T11721194

Sunrise: 7:49am; Sunset: 5:30pm; Moonrise: 9:23pm; Moonset: 9:11am; Day length: 9h 41m

January 23

8:17 AM 10.4 °F 5.0 °F 79% 30.18 in 10.0 miles North 10.4 mph – N/A Scattered Clouds

SPECI KLPR 231317Z AUTO 35009KT 10SM SCT016 M12/M15  A3018 RMK AO2

Sunrise: 7:48am; Sunset: 5:32pm; Moonrise: 10:37pm; Moonset: 9:41am; Day length: 9h 43m

January 24

8:09 AM 10.4 °F 1.4 °F 67% 30.22 in 5.0 miles SSE 5.8 mph – 0.00 in Snow Light Snow

SPECI KLPR 241309Z AUTO 16005KT 5SM -SN BKN028 OVC042 M12/M17 A3022 RMK AO2 SNB1259 P0000

Sunrise: 7:48am; Sunset: 5:33pm; Moonrise: 11:51pm; Moonset: 10:10am; Day length: 9h 45m

January 25

8:25 AM 28.4 °F 24.8 °F 86% 30.10 in 7.0 miles West 9.2 mph 20.7 mph N/A Overcast

SPECI KLPR 251325Z AUTO 28008G18KT 7SM OVC013 M02/M04 A3010 RMK AO2

Sunrise: 7:47am; Sunset: 5:34pm; Moonrise: none; Moonset: 10:41am; Day length: 9h 47m

January 26

8:09 AM 26.6 °F 24.8 °F 93% 29.93 in 1.5 miles ENE 9.2 mph – N/A Overcast

SPECI KLPR 261309Z AUTO 06008KT 1 1/2SM BR OVC004 M03/M04 A2993 RMK AO2

Sunrise: 7:46am; Sunset: 5:35pm; Moonrise: 1:03am; Moonset: 11:15am; Last Qtr: 7:58am; Day length: 9h 49m

January 27

8:25 AM 26.6 °F 21.2 °F 80% 29.94 in 6.0 miles WSW 11.5 mph – N/A Haze

SPECI KLPR 271325Z AUTO 25010KT 6SM HZ BKN014 OVC037 M03/M06 A2994 RMK AO2

Sunrise: 7:45am; Sunset: 5:37pm; Moonrise: 2:14am; Moonset: 11:55am; Day length: 9h 51m

January 28

8:20 AM 24.8 °F 21.2 °F 86% 29.79 in 4.0 miles NW 5.8 mph – N/A Overcast

SPECI KLPR 281320Z AUTO 32005KT 4SM BR BKN008 OVC012 M04/M06 A2979 RMK AO2 CIG 007V011

Sunrise: 7:45am; Sunset: 5:38pm; Moonrise: 3:21am; Moonset: 12:41pm; Day length: 9h 53m

January 29

8:30 AM 26.6 °F 23.0 °F 86% 29.77 in 5.0 miles South 12.7 mph – 0.00 in Overcast

SPECI KLPR 291330Z AUTO 19011KT 5SM UP BR FEW016 BKN029 OVC034 M03/M05 A2977 RMK    AO2 UPB24SNE24 P0000 $

Sunrise: 7:44am; Sunset: 5:39pm; Moonrise: 4:22am; Moonset: 1:34pm; Day length: 9h 56m

January 30

8:12 AM 24.8 °F 21.2 °F 86% 30.16 in 6.0 miles NE 8.1 mph – N/A Overcast

SPECI KLPR 301312Z AUTO 04007KT 6SM BR SCT008 OVC015 M04/M06 A3016 RMK AO2 $

Sunrise: 7:43am; Sunset: 5:40pm; Moonrise: 5:16am; Moonset: 2:32pm; Day length: 9h 58m

January 31

8:53 AM 9.0 °F 5.0 °F 84% 30.48 in 10.0 miles East 5.8 mph – N/A Partly Cloudy

METAR KLPR 311353Z AUTO 10005KT 10SM FEW080 M13/M15 A3043 RMK AO2 SLP321 T11281150

Sunrise: 7:42am; Sunset: 5:42pm; Moonrise: 6:01am; Moonset: 3:34pm; Day length: 10h 0m

Weather Data from this Great Site:

Written by M.T. Bass

January 31, 2011 at 12:21 pm

Erie Effects – Production Notes

leave a comment »

Background Lead In:  Grey (51, 51, 51); 2 seconds

Title Background Shot:  Gaussian Blur; 8 seconds

Opening Slide:  8 seconds

Daily Shots:  4 seconds

Crossfade:  1.5 seconds

Opening Title:  9 seconds @ 2/15; Title Font:  AR Julian, 72 pt; Subtitle Font:  Youngsook BTN, 24 pt.; Color Blue (0,0,79)

Closing Slide:  8 seconds

Credit Background Slide:  24 seconds

End Background Grey:  2 Seconds

Closing Credits:  20 Seconds, 15 fade in, 4 fade out; Title:  AR Julian, 48 pt; Subtitle:  Youngsook BTN, 12 pt; Credits:  Verdana, 10 pt; Color Blue (0,0,79)

Written by M.T. Bass

January 30, 2011 at 6:55 pm

And So It Begins . . . . Self-Publishing Quest

leave a comment »

Starting the process for researching how to have my novels published and e-published. As always, more involved than first thought. Looking at Smashwords, Amazon Kindle Publishing, & Barnes & Noble EPubIt for electronic publishing.  And here’s the starting list for print publishing from the blog POD, Self-Publishing, & Independent Publishing:

Written by M.T. Bass

January 28, 2011 at 7:26 am

Stab from the Past

leave a comment »

Wow, found my head demagnetizer, tape editing block and marker lurking in the bottom of my tool box . . . . Been a while since I’ve needed any of that stuff.

Written by M.T. Bass

January 22, 2011 at 3:53 pm

Carousel Dream — 2010 GLSC Semi-Finalist

leave a comment »

Carousel Dream ( http://www.cdbaby.com/cd/projectmojo) was selected as a semi-finalist for the 2010 Great Lakes Songwriting Contest:  http://www.greatlakessongwritingcontest.net/

 

Carousel Dream
Words & Music by M.T. Bass & L. Mosier
8 2008 Electron Alley Music
Lead Vocal: Lola
Backup Vocals: Ann-O

I am a whirling dervish, a carousel of chaos
Spinning and twirling ‘til my thoughts uncross
The hum of darkness, soothes my restless mind
And sails me away to where our thoughts entwine

Apart from each other, we dream one dream
Visions linked by a lone moonbeam

Without words we speak, sitting side-by-side
Everywhere and nowhere pass by on our lonesome ride
Embraced in our travels, we mean no others harm
Chasing a moment with your hand on my arm

Apart from each other, we dream one dream
Visions linked by a lone moonbeam

Fingers of wind, running through my hair
Break my spinning spell with cool night air
Wake to the noise of a same old different day
Our dream will always be there to take me away

Apart from each other, we dream one dream
Visions linked by a lone moonbeam

I am a whirling dervish, a carousel of chaos
Spinning and twirling ‘til my thoughts uncross

Written by M.T. Bass

January 12, 2011 at 11:15 pm